Calumet, MN (55716)

2:53 AM CST on February 07, 2016 (GMT -0600)
Calumet, MN | | Change Station
CLOSE
Current Station
Personal Weather Station
Location: Bovey, MN
Elevation: 1381 ft
Nearby Weather Stations
Active Advisory: Winter Weather Advisory

Elev 1381 ft 47.32 °N, 93.28 °W | Updated 10 minutes ago

Overcast
Overcast
33.8 °F
Feels Like 34 °F
N
2.7
Wind Variable Wind from SSE

Today
High -- | Low -- °F
--% Chance of Precip.
Yesterday
High -- | Low -- °F
Precip. -- in
Pressure 29.48 in
Visibility 10.0 miles
Clouds Few 1200 ft
Scattered Clouds 1800 ft
Overcast 7500 ft
Windchill 34 °F
Dew Point 30 °F
Humidity 87%
Rainfall 0.00 in
Snow Depth Not available.
7:31 AM 5:23 PM
Waning Crescent, 2% visible
METAR KGPZ 070835Z AUTO 19011KT 10SM FEW012 SCT018 OVC075 01/M01 A2948 RMK AO1
Pressure 29.48 in
Visibility 10.0 miles
Clouds Few 1200 ft
Scattered Clouds 1800 ft
Overcast 7500 ft
Windchill 34 °F
Dew Point 30 °F
Humidity 87%
Rainfall 0.00 in
Snow Depth Not available.
7:31 AM 5:23 PM
Waning Crescent, 2% visible
METAR KGPZ 070835Z AUTO 19011KT 10SM FEW012 SCT018 OVC075 01/M01 A2948 RMK AO1

10-Day Weather Forecast

Almanac

Astronomy

Feb. 07, 2016 Rise Set
Actual Time
Civil Twilight
Nautical Twilight
Astronomical Twilight
Moon
Length of Visible Light
Length of Day
Tomorrow will be .
, % of the Moon is Illuminated

Today's Extremes

State Highs State Lows

Community

WunderPhotos

Upload Photos

1,891,171 photos uploaded!

WunderBlog® & News

Nearby

Air Quality

  Air Quality AQ Index Pollutant
Not available.

Snow Depth

Station Depth Elevation

Earthquake Activity

City Distance Mag. Time & Date
Minimum magnitude displayed is 2.5.

Coastal Water Temperatures

Place Temperature

Stations

Nearby Weather Stations

Station Location Temp. Windchill Dew Point Humidity Wind Precip. Elev Updated Type
                   

Watches & Warnings

Winter Weather Advisory
Issued: 9:40 PM CST Feb. 6, 2016 – National Weather Service

... Winter Weather Advisory remains in effect from noon Sunday to
6 am CST Monday...

* locations... International Falls south to Grand Rapids... the
Brainerd lakes and Lake Mille lacs.

* Snow accumulations... 2 to 4 inches.

* Winds... northwest 15 to 25 mph with gusts up to 30 mph.

* Visibilities... reduced to less than one mile at times.

Precautionary/preparedness actions...

A Winter Weather Advisory for snow and blowing snow means that
visibilities will be limited due to a combination of falling and
blowing snow. Use caution when traveling... especially in open
areas that are more exposed to the wind. Roads may be slick and
hazardous... so allow extra time to reach your destination.